createdAt,value
2022-12-22T00:02:31.819Z,70.27
2022-12-22T00:05:54.889Z,70.39
2022-12-22T00:09:18.212Z,71.07
2022-12-22T00:12:40.943Z,71.06
2022-12-22T00:16:04.072Z,70.49
2022-12-22T00:19:34.193Z,68.71
2022-12-22T00:22:57.262Z,69.15
2022-12-22T00:26:20.531Z,69.88
2022-12-22T00:29:44.212Z,69.67
2022-12-22T00:33:09.052Z,70.40
2022-12-22T00:36:33.022Z,71.35
2022-12-22T00:39:55.970Z,72.22
2022-12-22T00:43:18.874Z,72.61
2022-12-22T00:46:41.694Z,72.93
2022-12-22T00:50:06.895Z,72.51
2022-12-22T00:53:29.848Z,72.07
2022-12-22T00:56:52.817Z,71.82
2022-12-22T01:00:17.194Z,71.72
2022-12-22T01:03:40.162Z,71.67
2022-12-22T01:07:03.381Z,71.23
2022-12-22T01:10:33.039Z,70.70
2022-12-22T01:13:56.088Z,71.41
2022-12-22T01:17:19.256Z,71.61
2022-12-22T01:20:42.017Z,70.96
2022-12-22T01:24:05.577Z,71.30
2022-12-22T01:27:29.529Z,72.02
2022-12-22T01:30:52.502Z,72.68
2022-12-22T01:34:15.894Z,72.10
2022-12-22T01:37:39.332Z,71.95
2022-12-22T01:41:02.276Z,69.71
2022-12-22T01:44:34.152Z,71.07
2022-12-22T01:47:56.971Z,71.21
2022-12-22T01:51:23.087Z,71.22
2022-12-22T01:54:45.504Z,70.24
2022-12-22T01:58:08.550Z,69.29
2022-12-22T02:01:31.826Z,69.19
2022-12-22T02:04:59.361Z,68.49
2022-12-22T02:08:47.259Z,69.39
2022-12-22T02:12:31.683Z,68.72
2022-12-22T02:16:00.817Z,69.02
2022-12-22T02:19:44.471Z,69.77
2022-12-22T02:23:22.396Z,67.80
2022-12-22T02:27:10.997Z,67.41
2022-12-22T02:30:33.763Z,66.17
2022-12-22T02:33:56.839Z,67.64
2022-12-22T02:38:20.772Z,66.30
2022-12-22T02:41:46.287Z,67.59
2022-12-22T02:45:21.082Z,67.83
2022-12-22T02:48:53.112Z,68.56
2022-12-22T02:52:24.217Z,68.73
2022-12-22T02:55:51.015Z,67.67
2022-12-22T02:59:14.692Z,67.74
2022-12-22T03:02:37.874Z,66.67
2022-12-22T03:06:00.810Z,67.76
2022-12-22T03:09:23.672Z,67.48
2022-12-22T03:12:46.615Z,67.94
2022-12-22T03:16:09.503Z,68.17
2022-12-22T03:19:32.631Z,67.90
2022-12-22T03:22:55.795Z,67.73
2022-12-22T03:26:00.238Z,67.09
2022-12-22T03:29:04.582Z,67.34
2022-12-22T03:32:09.120Z,67.38
2022-12-22T03:35:13.675Z,66.67
2022-12-22T03:38:18.697Z,67.63
2022-12-22T03:41:41.762Z,66.88
2022-12-22T03:45:04.574Z,67.66
2022-12-22T03:48:08.856Z,68.11
2022-12-22T03:51:13.370Z,67.11
2022-12-22T03:54:26.740Z,67.67
2022-12-22T03:57:31.106Z,67.74
2022-12-22T04:00:35.662Z,69.01
2022-12-22T04:03:39.967Z,68.12
2022-12-22T04:06:45.534Z,69.10
2022-12-22T04:10:08.527Z,68.87
2022-12-22T04:13:12.942Z,68.81
2022-12-22T04:16:17.372Z,68.52
2022-12-22T04:19:21.765Z,67.63
2022-12-22T04:22:26.273Z,67.83
2022-12-22T04:25:30.661Z,67.74
2022-12-22T04:28:36.368Z,68.28
2022-12-22T04:31:40.910Z,68.70
2022-12-22T04:34:45.524Z,69.87
2022-12-22T04:37:50.016Z,70.14
2022-12-22T04:40:54.576Z,69.20
2022-12-22T04:43:59.189Z,68.46
2022-12-22T04:47:04.026Z,69.22
2022-12-22T04:50:09.547Z,69.08
2022-12-22T04:53:14.004Z,68.48
2022-12-22T04:56:18.723Z,68.80
2022-12-22T04:59:24.636Z,69.71
2022-12-22T05:02:29.341Z,69.56
2022-12-22T05:05:33.734Z,69.34
2022-12-22T05:08:38.475Z,68.67
2022-12-22T05:11:43.143Z,68.09
2022-12-22T05:14:47.633Z,68.28
2022-12-22T05:17:52.301Z,68.42
2022-12-22T05:20:56.864Z,68.16
2022-12-22T05:24:01.473Z,67.93
2022-12-22T05:27:06.096Z,69.41
2022-12-22T05:30:11.447Z,67.87
2022-12-22T05:33:16.022Z,67.59
2022-12-22T05:36:20.946Z,68.67
2022-12-22T05:39:25.416Z,68.29
2022-12-22T05:42:38.907Z,67.85
2022-12-22T05:45:43.414Z,67.71
2022-12-22T05:48:47.934Z,67.82
2022-12-22T05:51:54.721Z,68.15
2022-12-22T05:54:59.268Z,69.15
2022-12-22T05:58:04.130Z,68.33
2022-12-22T06:01:09.115Z,68.59
2022-12-22T06:04:13.459Z,68.98
2022-12-22T06:07:18.219Z,68.29
2022-12-22T06:10:22.886Z,68.06
2022-12-22T06:13:28.158Z,69.33
2022-12-22T06:16:32.920Z,68.74
2022-12-22T06:19:37.490Z,69.54
2022-12-22T06:22:41.888Z,69.93
2022-12-22T06:25:57.044Z,69.58
2022-12-22T06:29:01.500Z,68.80
2022-12-22T06:32:06.338Z,68.95
2022-12-22T06:35:11.779Z,69.03
2022-12-22T06:38:16.378Z,69.42
2022-12-22T06:41:41.054Z,69.65
2022-12-22T06:44:45.495Z,69.16
2022-12-22T06:47:50.158Z,69.48
2022-12-22T06:51:02.215Z,70.42
2022-12-22T06:54:06.886Z,70.61
2022-12-22T06:57:11.343Z,69.83
2022-12-22T07:00:16.495Z,69.87
2022-12-22T07:03:21.358Z,69.81
2022-12-22T07:06:26.065Z,71.03
2022-12-22T07:09:30.843Z,70.35
2022-12-22T07:12:35.568Z,69.74
2022-12-22T07:15:39.953Z,69.61
2022-12-22T07:18:45.079Z,69.76
2022-12-22T07:21:50.019Z,70.15
2022-12-22T07:24:55.626Z,70.59
2022-12-22T07:28:00.361Z,70.46
2022-12-22T07:31:06.011Z,69.56
2022-12-22T07:34:10.381Z,69.51
2022-12-22T07:37:14.676Z,69.06
2022-12-22T07:40:19.209Z,69.87
2022-12-22T07:43:23.555Z,69.39
2022-12-22T07:46:31.856Z,69.43
2022-12-22T07:50:05.648Z,70.61
2022-12-22T07:53:11.388Z,69.64
2022-12-22T07:56:15.957Z,70.05
2022-12-22T07:59:21.035Z,69.47
2022-12-22T08:02:25.585Z,69.00
2022-12-22T08:05:30.232Z,69.00
2022-12-22T08:08:35.904Z,69.22
2022-12-22T08:11:40.270Z,69.05
2022-12-22T08:14:46.773Z,68.89
2022-12-22T08:17:51.073Z,69.51
2022-12-22T08:20:55.559Z,69.58
2022-12-22T08:23:59.948Z,68.60
2022-12-22T08:27:09.923Z,69.50
2022-12-22T08:30:15.032Z,69.87
2022-12-22T08:33:19.546Z,70.19
2022-12-22T08:36:24.318Z,70.42
2022-12-22T08:39:33.416Z,70.66
2022-12-22T08:42:38.479Z,69.76
2022-12-22T08:45:44.126Z,70.43
2022-12-22T08:48:48.525Z,69.48
2022-12-22T08:51:53.556Z,69.54
2022-12-22T08:54:58.117Z,69.58
2022-12-22T08:58:03.231Z,68.92
2022-12-22T09:01:07.853Z,68.68
2022-12-22T09:04:15.429Z,68.22
2022-12-22T09:13:49.457Z,67.61
2022-12-22T09:16:54.116Z,68.79
2022-12-22T09:19:58.669Z,69.36
2022-12-22T09:23:03.304Z,69.34
2022-12-22T09:26:17.514Z,68.32
2022-12-22T09:29:21.987Z,67.80
2022-12-22T09:32:26.559Z,70.34
2022-12-22T09:35:31.029Z,72.58
2022-12-22T09:38:36.254Z,72.65
2022-12-22T09:41:53.117Z,71.46
2022-12-22T09:44:57.571Z,76.29
2022-12-22T09:48:03.990Z,75.49
2022-12-22T09:51:14.548Z,73.42
2022-12-22T09:54:19.333Z,72.88
2022-12-22T09:57:30.405Z,73.45
2022-12-22T10:00:38.050Z,72.17
2022-12-22T10:03:47.949Z,71.09
2022-12-22T10:07:12.167Z,71.30
2022-12-22T10:10:28.803Z,70.55
2022-12-22T10:13:33.466Z,71.07
2022-12-22T10:16:37.940Z,70.52
2022-12-22T10:19:42.481Z,71.22
2022-12-22T10:22:54.215Z,71.29
2022-12-22T10:29:23.361Z,70.46
2022-12-22T10:32:28.009Z,71.36
2022-12-22T10:35:46.433Z,71.89
2022-12-22T10:43:57.821Z,69.47
2022-12-22T10:47:24.929Z,71.47
2022-12-22T10:50:29.552Z,72.32
2022-12-22T10:53:42.330Z,71.54
2022-12-22T10:56:59.684Z,70.57
2022-12-22T11:00:23.290Z,69.40
2022-12-22T11:03:33.407Z,68.61
2022-12-22T11:06:38.284Z,68.38
2022-12-22T11:09:43.163Z,68.92
2022-12-22T11:13:12.026Z,68.56
2022-12-22T11:16:36.283Z,68.83
2022-12-22T11:19:53.387Z,69.51
2022-12-22T11:23:11.851Z,69.41
2022-12-22T11:26:52.661Z,71.31
2022-12-22T11:30:05.640Z,71.21
2022-12-22T11:33:38.006Z,71.64
2022-12-22T11:36:51.429Z,69.98
2022-12-22T11:40:17.271Z,69.46
2022-12-22T11:43:43.647Z,70.04
2022-12-22T11:46:58.672Z,70.46
2022-12-22T11:50:59.470Z,71.22
2022-12-22T11:54:42.495Z,70.54
2022-12-22T11:58:06.702Z,70.71
2022-12-22T12:01:31.748Z,70.72
2022-12-22T12:05:09.990Z,70.74
2022-12-22T12:08:32.370Z,70.89
2022-12-22T12:11:51.420Z,70.84
2022-12-22T12:14:58.782Z,70.38
2022-12-22T12:18:03.248Z,70.20
2022-12-22T12:21:23.945Z,69.94
2022-12-22T12:25:12.492Z,69.71
2022-12-22T12:28:59.355Z,67.93
2022-12-22T12:32:29.596Z,68.15
2022-12-22T12:35:49.011Z,69.63
2022-12-22T12:39:12.521Z,68.59
2022-12-22T12:42:31.734Z,67.81
2022-12-22T12:45:47.765Z,68.70
2022-12-22T12:48:52.329Z,69.30
2022-12-22T12:51:56.923Z,68.98
2022-12-22T12:55:29.648Z,69.63
2022-12-22T12:58:38.848Z,69.26
2022-12-22T13:01:46.198Z,67.91
2022-12-22T13:05:04.431Z,67.84
2022-12-22T13:08:18.479Z,68.15
2022-12-22T13:12:10.751Z,67.55
2022-12-22T13:15:02.414Z,67.02
2022-12-22T13:18:25.918Z,66.91
2022-12-22T13:21:55.248Z,67.43
2022-12-22T13:25:04.571Z,66.26
2022-12-22T13:28:17.082Z,65.71
2022-12-22T13:31:44.824Z,67.01
2022-12-22T13:35:32.690Z,67.46
2022-12-22T13:38:39.138Z,67.43
2022-12-22T13:41:47.512Z,66.31
2022-12-22T13:44:53.371Z,65.93
2022-12-22T13:48:00.461Z,66.23
2022-12-22T13:51:09.398Z,66.78
2022-12-22T13:54:23.992Z,67.81
2022-12-22T13:57:28.526Z,67.24
2022-12-22T14:00:33.421Z,66.48
2022-12-22T14:04:00.368Z,65.99
2022-12-22T14:07:17.829Z,66.42
2022-12-22T14:10:38.762Z,67.61
2022-12-22T14:13:45.038Z,67.64
2022-12-22T14:16:51.268Z,67.47
2022-12-22T14:19:58.859Z,66.32
2022-12-22T14:23:07.006Z,67.53
2022-12-22T14:26:20.201Z,67.55
2022-12-22T14:29:29.664Z,67.69
2022-12-22T14:32:49.138Z,67.99
2022-12-22T14:36:19.009Z,67.17
2022-12-22T14:39:26.466Z,67.70
2022-12-22T14:42:32.711Z,68.62
2022-12-22T14:45:37.246Z,67.37
2022-12-22T14:48:47.876Z,67.01
2022-12-22T14:52:01.295Z,66.81
2022-12-22T14:55:19.819Z,67.56
2022-12-22T14:58:30.476Z,67.73
2022-12-22T15:01:35.218Z,67.91
2022-12-22T15:04:39.842Z,67.79
2022-12-22T15:08:08.040Z,68.28
2022-12-22T15:11:17.527Z,68.78
2022-12-22T15:14:32.021Z,68.44
2022-12-22T15:17:39.721Z,68.76
2022-12-22T15:20:44.524Z,68.28
2022-12-22T15:23:49.104Z,68.74
2022-12-22T15:26:53.676Z,68.89
2022-12-22T15:29:58.068Z,67.51
2022-12-22T15:33:02.516Z,67.75
2022-12-22T15:36:11.219Z,68.03
2022-12-22T15:39:17.835Z,68.40
2022-12-22T15:42:22.420Z,67.20
2022-12-22T15:45:26.828Z,67.08
2022-12-22T15:48:37.538Z,68.20
2022-12-22T15:51:42.612Z,68.44
2022-12-22T15:54:47.404Z,67.90
2022-12-22T15:57:54.985Z,68.14
2022-12-22T16:00:59.488Z,67.47
2022-12-22T16:04:04.120Z,68.16
2022-12-22T16:07:11.203Z,67.81
2022-12-22T16:10:34.223Z,67.81
2022-12-22T16:13:39.221Z,67.71
2022-12-22T16:16:44.834Z,67.94
2022-12-22T16:19:50.674Z,67.48
2022-12-22T16:22:55.495Z,67.76
2022-12-22T16:26:02.668Z,67.86
2022-12-22T16:29:07.203Z,67.98
2022-12-22T16:32:30.655Z,67.79
2022-12-22T16:35:35.171Z,68.18
2022-12-22T16:38:40.046Z,67.70
2022-12-22T16:41:46.401Z,67.16
2022-12-22T16:45:06.486Z,68.10
2022-12-22T16:48:16.465Z,68.41
2022-12-22T16:51:29.564Z,68.05
2022-12-22T16:54:34.085Z,67.71
2022-12-22T16:57:38.656Z,67.56
2022-12-22T17:00:45.929Z,67.62
2022-12-22T17:03:51.052Z,67.83
2022-12-22T17:06:56.866Z,68.37
2022-12-22T17:10:03.625Z,68.38
2022-12-22T17:13:08.269Z,68.25
2022-12-22T17:16:21.014Z,68.40
2022-12-22T17:19:25.549Z,68.29
2022-12-22T17:22:33.476Z,67.91
2022-12-22T17:25:38.143Z,67.35
2022-12-22T17:28:43.528Z,68.25
2022-12-22T17:31:50.467Z,68.17
2022-12-22T17:34:54.728Z,68.14
2022-12-22T17:37:59.423Z,68.61
2022-12-22T17:41:04.233Z,68.54
2022-12-22T17:44:16.526Z,67.53
2022-12-22T17:47:31.311Z,67.34
2022-12-22T17:50:38.185Z,67.42
2022-12-22T17:53:42.927Z,67.96
2022-12-22T17:56:47.335Z,67.56
2022-12-22T17:59:51.957Z,67.45
2022-12-22T18:02:56.556Z,67.88
2022-12-22T18:06:01.399Z,68.00
2022-12-22T18:09:08.371Z,67.64
2022-12-22T18:12:22.914Z,67.61
2022-12-22T18:15:29.426Z,68.23
2022-12-22T18:18:34.417Z,67.03
2022-12-22T18:21:38.996Z,67.03
2022-12-22T18:24:43.628Z,67.75
2022-12-22T18:27:49.102Z,66.67
2022-12-22T18:30:53.283Z,66.72
2022-12-22T18:33:57.732Z,66.21
2022-12-22T18:37:03.764Z,66.45
2022-12-22T18:40:23.076Z,67.38
2022-12-22T18:43:30.712Z,67.06
2022-12-22T18:46:35.209Z,66.26
2022-12-22T18:49:39.791Z,65.87
2022-12-22T18:52:45.916Z,66.17
2022-12-22T18:55:50.702Z,66.69
2022-12-22T18:58:55.573Z,66.86
2022-12-22T19:02:16.881Z,67.13
2022-12-22T19:05:24.244Z,67.02
2022-12-22T19:08:32.019Z,66.22
2022-12-22T19:11:37.300Z,66.12
2022-12-22T19:14:44.452Z,65.75
2022-12-22T19:17:50.675Z,66.50
2022-12-22T19:20:56.376Z,65.60
2022-12-22T19:24:00.860Z,65.68
2022-12-22T19:27:05.757Z,65.89
2022-12-22T19:30:22.608Z,65.72
2022-12-22T19:33:39.345Z,65.05
2022-12-22T19:36:43.753Z,65.50
2022-12-22T19:39:48.146Z,66.67
2022-12-22T19:42:56.514Z,66.51
2022-12-22T19:46:01.092Z,66.42
2022-12-22T19:49:05.699Z,67.62
2022-12-22T19:52:13.356Z,67.21
2022-12-22T19:55:17.768Z,67.06
2022-12-22T19:58:28.918Z,67.66
2022-12-22T20:01:33.577Z,67.21
2022-12-22T20:04:38.257Z,66.90
2022-12-22T20:07:42.626Z,67.10
2022-12-22T20:10:52.959Z,67.31
2022-12-22T20:14:01.426Z,67.37
2022-12-22T20:17:05.833Z,67.14
2022-12-22T20:20:18.517Z,66.65
2022-12-22T20:23:24.782Z,66.30
2022-12-22T20:26:29.572Z,66.93
2022-12-22T20:29:33.955Z,67.07
2022-12-22T20:32:38.356Z,67.32
2022-12-22T20:35:43.637Z,67.17
2022-12-22T20:38:48.979Z,67.40
2022-12-22T20:41:53.963Z,67.24
2022-12-22T20:45:02.856Z,66.64
2022-12-22T20:48:19.692Z,66.44
2022-12-22T20:51:27.213Z,65.93
2022-12-22T20:54:31.746Z,66.52
2022-12-22T20:57:36.349Z,66.98
2022-12-22T21:00:43.566Z,66.85
2022-12-22T21:03:48.351Z,66.71
2022-12-22T21:06:55.801Z,66.63
2022-12-22T21:10:00.452Z,67.62
2022-12-22T21:13:05.282Z,66.60
2022-12-22T21:16:18.074Z,67.74
2022-12-22T21:19:22.948Z,68.24
2022-12-22T21:22:27.336Z,68.47
2022-12-22T21:25:31.879Z,69.69
2022-12-22T21:28:38.781Z,67.96
2022-12-22T21:31:43.344Z,68.09
2022-12-22T21:34:47.861Z,69.06
2022-12-22T21:37:53.960Z,67.68
2022-12-22T21:40:59.497Z,68.10
2022-12-22T21:44:03.537Z,68.50
2022-12-22T21:47:11.307Z,68.67
2022-12-22T21:50:25.836Z,68.52
2022-12-22T21:53:30.432Z,68.76
2022-12-22T21:56:35.104Z,68.95
2022-12-22T21:59:39.517Z,68.12
2022-12-22T22:02:44.289Z,67.57
2022-12-22T22:05:49.150Z,68.01
2022-12-22T22:08:53.549Z,67.51
2022-12-22T22:12:16.723Z,69.62
2022-12-22T22:15:22.450Z,70.26
2022-12-22T22:18:26.414Z,69.96
2022-12-22T22:21:30.711Z,70.33
2022-12-22T22:24:35.528Z,69.92
2022-12-22T22:27:47.330Z,69.69
2022-12-22T22:30:52.179Z,69.95
2022-12-22T22:33:57.330Z,69.33
2022-12-22T22:37:01.701Z,69.72
2022-12-22T22:40:07.135Z,71.07
2022-12-22T22:43:12.294Z,71.10
2022-12-22T22:46:16.847Z,70.08
2022-12-22T22:49:28.083Z,69.22
2022-12-22T22:52:32.686Z,70.77
2022-12-22T22:55:37.088Z,70.36
2022-12-22T22:58:41.695Z,70.05
2022-12-22T23:01:46.156Z,70.51
2022-12-22T23:04:50.746Z,70.24
2022-12-22T23:07:55.281Z,69.26
2022-12-22T23:10:59.998Z,69.65
2022-12-22T23:14:04.491Z,69.82
2022-12-22T23:17:09.202Z,70.20
2022-12-22T23:20:13.663Z,69.53
2022-12-22T23:23:18.562Z,69.68
2022-12-22T23:26:23.698Z,69.93
2022-12-22T23:29:28.294Z,70.79
2022-12-22T23:32:32.836Z,70.17
2022-12-22T23:35:38.553Z,69.59
2022-12-22T23:38:42.996Z,70.06
2022-12-22T23:41:47.688Z,69.52
2022-12-22T23:44:52.150Z,69.59
2022-12-22T23:47:57.010Z,69.91
2022-12-22T23:51:01.556Z,69.51
2022-12-22T23:54:06.119Z,69.99
2022-12-22T23:57:10.610Z,69.25
